createdAt,value
2023-05-02T00:00:43.837Z,238.69
2023-05-02T00:01:43.942Z,239.11
2023-05-02T00:02:43.993Z,239.29
2023-05-02T00:03:43.983Z,239.93
2023-05-02T00:04:43.844Z,238.55
2023-05-02T00:05:43.781Z,238.88
2023-05-02T00:06:43.797Z,239.62
2023-05-02T00:07:43.764Z,239.76
2023-05-02T00:08:43.752Z,239.92
2023-05-02T00:09:43.750Z,240.21
2023-05-02T00:10:43.757Z,240.40
2023-05-02T00:11:43.721Z,240.50
2023-05-02T00:12:43.712Z,241.15
2023-05-02T00:13:43.707Z,241.28
2023-05-02T00:14:43.690Z,243.31
2023-05-02T00:15:43.697Z,240.70
2023-05-02T00:16:43.692Z,240.91
2023-05-02T00:17:43.701Z,240.31
2023-05-02T00:18:43.734Z,240.69
2023-05-02T00:19:43.816Z,241.22
2023-05-02T00:20:43.869Z,241.02
2023-05-02T00:21:43.916Z,241.73
2023-05-02T00:22:43.945Z,242.40
2023-05-02T00:23:44.010Z,241.78
2023-05-02T00:24:44.075Z,241.59
2023-05-02T00:25:44.123Z,241.49
2023-05-02T00:26:44.202Z,240.93
2023-05-02T00:27:44.231Z,242.99
2023-05-02T00:28:44.263Z,242.06
2023-05-02T00:29:44.306Z,241.41
2023-05-02T00:30:44.407Z,242.06
2023-05-02T00:31:44.489Z,241.09
2023-05-02T00:32:44.526Z,241.43
2023-05-02T00:33:44.509Z,241.86
2023-05-02T00:34:44.572Z,242.15
2023-05-02T00:35:44.611Z,241.52
2023-05-02T00:36:44.657Z,241.17
2023-05-02T00:37:44.709Z,241.68
2023-05-02T00:38:44.773Z,243.25
2023-05-02T00:39:44.823Z,242.55
2023-05-02T00:40:44.861Z,241.99
2023-05-02T00:41:44.925Z,243.05
2023-05-02T00:42:44.967Z,243.88
2023-05-02T00:43:44.971Z,243.96
2023-05-02T00:44:44.959Z,243.64
2023-05-02T00:45:44.947Z,244.29
2023-05-02T00:46:45.029Z,243.38
2023-05-02T00:47:44.957Z,243.40
2023-05-02T00:48:44.943Z,244.09
2023-05-02T00:49:44.920Z,242.21
2023-05-02T00:50:44.916Z,243.11
2023-05-02T00:51:44.907Z,244.03
2023-05-02T00:52:44.953Z,244.62
2023-05-02T00:53:44.984Z,243.62
2023-05-02T00:54:45.049Z,243.34
2023-05-02T00:55:45.088Z,243.70
2023-05-02T00:56:45.130Z,243.64
2023-05-02T00:57:45.191Z,244.02
2023-05-02T00:58:45.267Z,243.21
2023-05-02T00:59:45.336Z,243.05
2023-05-02T01:00:45.377Z,244.06
2023-05-02T01:01:45.562Z,243.42
2023-05-02T01:02:45.518Z,244.70
2023-05-02T01:03:45.619Z,244.06
2023-05-02T01:04:45.582Z,243.82
2023-05-02T01:05:45.611Z,244.31
2023-05-02T01:06:45.751Z,243.55
2023-05-02T01:07:45.720Z,245.63
2023-05-02T01:08:45.756Z,244.29
2023-05-02T01:09:45.784Z,244.35
2023-05-02T01:10:45.843Z,245.62
2023-05-02T01:11:45.911Z,244.31
2023-05-02T01:12:45.945Z,244.43
2023-05-02T01:13:46.037Z,243.88
2023-05-02T01:14:46.107Z,243.74
2023-05-02T01:15:46.161Z,244.53
2023-05-02T01:16:46.218Z,245.51
2023-05-02T01:17:46.289Z,245.17
2023-05-02T01:18:46.252Z,245.60
2023-05-02T01:19:46.286Z,244.33
2023-05-02T01:20:46.324Z,245.13
2023-05-02T01:21:46.363Z,245.50
2023-05-02T01:22:46.423Z,243.84
2023-05-02T01:23:46.466Z,245.02
2023-05-02T01:24:46.467Z,244.63
2023-05-02T01:25:46.497Z,246.02
2023-05-02T01:26:46.530Z,245.54
2023-05-02T01:27:46.564Z,245.02
2023-05-02T01:28:46.602Z,244.94
2023-05-02T01:29:46.631Z,245.37
2023-05-02T01:30:46.675Z,245.95
2023-05-02T01:31:46.759Z,245.12
2023-05-02T01:32:46.822Z,245.78
2023-05-02T01:33:46.830Z,246.97
2023-05-02T01:34:46.875Z,246.62
2023-05-02T01:35:46.924Z,244.66
2023-05-02T01:36:46.989Z,245.80
2023-05-02T01:37:47.025Z,244.67
2023-05-02T01:38:47.082Z,245.69
2023-05-02T01:39:47.169Z,245.05
2023-05-02T01:40:47.204Z,245.04
2023-05-02T01:41:47.242Z,244.48
2023-05-02T01:42:47.283Z,244.64
2023-05-02T01:43:47.351Z,244.73
2023-05-02T01:44:47.322Z,244.87
2023-05-02T01:45:47.367Z,245.01
2023-05-02T01:46:47.406Z,245.33
2023-05-02T01:47:47.336Z,245.75
2023-05-02T01:48:47.300Z,247.54
2023-05-02T01:49:47.298Z,246.13
2023-05-02T01:50:47.287Z,244.72
2023-05-02T01:51:47.294Z,245.83
2023-05-02T01:52:47.304Z,246.88
2023-05-02T01:53:47.365Z,247.90
2023-05-02T01:54:47.408Z,246.07
2023-05-02T01:55:47.438Z,245.31
2023-05-02T01:56:47.506Z,245.73
2023-05-02T01:57:47.557Z,245.51
2023-05-02T01:58:47.603Z,246.18
2023-05-02T01:59:47.626Z,245.10
2023-05-02T02:00:47.726Z,246.84
2023-05-02T02:01:47.727Z,246.65
2023-05-02T02:02:47.872Z,245.74
2023-05-02T02:03:47.836Z,245.14
2023-05-02T02:04:47.977Z,245.53
2023-05-02T02:05:47.925Z,245.90
2023-05-02T02:06:48.034Z,246.40
2023-05-02T02:07:48.049Z,244.47
2023-05-02T02:08:48.110Z,245.52
2023-05-02T02:09:48.214Z,246.24
2023-05-02T02:10:48.263Z,246.66
2023-05-02T02:11:48.300Z,246.11
2023-05-02T02:12:48.345Z,247.91
2023-05-02T02:13:48.415Z,244.65
2023-05-02T02:14:48.471Z,247.48
2023-05-02T02:15:48.526Z,246.77
2023-05-02T02:16:48.640Z,245.90
2023-05-02T02:17:48.676Z,246.57
2023-05-02T02:18:48.732Z,244.04
2023-05-02T02:19:48.773Z,245.97
2023-05-02T02:20:48.851Z,245.27
2023-05-02T02:21:49.164Z,244.66
2023-05-02T02:22:48.987Z,245.94
2023-05-02T02:23:49.027Z,246.01
2023-05-02T02:24:49.084Z,246.82
2023-05-02T02:25:49.158Z,244.86
2023-05-02T02:26:49.216Z,245.46
2023-05-02T02:27:49.300Z,245.91
2023-05-02T02:28:49.334Z,246.42
2023-05-02T02:29:49.407Z,245.69
2023-05-02T02:30:49.529Z,244.96
2023-05-02T02:31:49.523Z,244.36
2023-05-02T02:32:49.621Z,245.09
2023-05-02T02:33:49.664Z,244.72
2023-05-02T02:34:49.720Z,247.46
2023-05-02T02:35:49.714Z,247.55
2023-05-02T02:36:49.796Z,246.39
2023-05-02T02:37:49.714Z,243.80
2023-05-02T02:38:49.679Z,242.68
2023-05-02T02:39:49.688Z,242.52
2023-05-02T02:40:49.693Z,235.53
2023-05-02T02:41:49.772Z,224.40
2023-05-02T02:42:49.634Z,214.39
2023-05-02T02:43:49.666Z,204.45
2023-05-02T02:44:49.605Z,186.04
2023-05-02T02:45:49.660Z,169.58
2023-05-02T02:46:49.645Z,155.12
2023-05-02T02:47:49.643Z,141.84
2023-05-02T02:48:49.572Z,130.96
2023-05-02T02:49:49.589Z,121.17
2023-05-02T02:50:49.616Z,109.20
2023-05-02T02:51:49.657Z,98.58
2023-05-02T02:52:49.703Z,90.52
2023-05-02T02:53:49.721Z,89.59
2023-05-02T02:54:49.717Z,79.18
2023-05-02T02:55:49.726Z,70.65
2023-05-02T02:56:49.725Z,70.62
2023-05-02T02:57:49.734Z,62.68
2023-05-02T02:58:49.727Z,47.54
2023-05-02T02:59:49.728Z,44.46
2023-05-02T03:00:49.792Z,29.58
2023-05-02T03:01:49.831Z,26.96
2023-05-02T03:02:49.779Z,32.18
2023-05-02T03:03:49.876Z,30.92
2023-05-02T03:04:49.767Z,27.56
2023-05-02T03:05:49.779Z,25.33
2023-05-02T03:06:49.887Z,26.16
2023-05-02T03:07:49.777Z,28.64
2023-05-02T03:08:49.784Z,24.69
2023-05-02T03:09:49.847Z,25.00
2023-05-02T03:10:49.804Z,25.75
2023-05-02T03:11:49.829Z,27.67
2023-05-02T03:12:49.823Z,27.18
2023-05-02T03:13:49.822Z,25.00
2023-05-02T03:14:49.824Z,25.38
2023-05-02T03:15:49.854Z,26.11
2023-05-02T03:16:49.854Z,29.89
2023-05-02T03:17:49.886Z,28.01
2023-05-02T03:18:49.856Z,26.04
2023-05-02T03:19:49.861Z,26.80
2023-05-02T03:20:49.865Z,25.92
2023-05-02T03:21:49.902Z,24.48
2023-05-02T03:22:49.906Z,25.68
2023-05-02T03:23:49.919Z,25.00
2023-05-02T03:24:49.933Z,27.20
2023-05-02T03:25:49.941Z,25.00
2023-05-02T03:26:49.953Z,27.94
2023-05-02T03:27:49.975Z,25.56
2023-05-02T03:28:49.978Z,25.63
2023-05-02T03:29:49.990Z,26.41
2023-05-02T03:30:49.971Z,26.53
2023-05-02T03:31:50.032Z,27.31
2023-05-02T03:32:50.002Z,28.20
2023-05-02T03:33:49.979Z,27.46
2023-05-02T03:34:49.992Z,25.26
2023-05-02T03:35:49.994Z,25.00
2023-05-02T03:36:49.993Z,30.43
2023-05-02T03:37:49.993Z,26.35
2023-05-02T03:38:50.000Z,30.53
2023-05-02T03:39:49.973Z,29.05
2023-05-02T03:40:49.999Z,26.29
2023-05-02T03:41:49.976Z,27.03
2023-05-02T03:42:49.991Z,28.16
2023-05-02T03:43:49.969Z,25.40
2023-05-02T03:44:49.963Z,25.31
2023-05-02T03:45:49.984Z,27.31
2023-05-02T03:46:50.016Z,28.01
2023-05-02T03:47:50.062Z,27.00
2023-05-02T03:48:49.947Z,27.13
2023-05-02T03:49:49.970Z,26.95
2023-05-02T03:50:49.948Z,26.06
2023-05-02T03:51:49.941Z,26.30
2023-05-02T03:52:49.952Z,25.69
2023-05-02T03:53:49.988Z,25.96
2023-05-02T03:54:49.991Z,26.77
2023-05-02T03:55:50.028Z,25.65
2023-05-02T03:56:50.077Z,30.93
2023-05-02T03:57:50.094Z,27.11
2023-05-02T03:58:50.115Z,26.70
2023-05-02T03:59:50.129Z,27.37
2023-05-02T04:00:50.147Z,28.85
2023-05-02T04:01:50.326Z,30.92
2023-05-02T04:02:50.451Z,32.71
2023-05-02T04:03:50.255Z,34.05
2023-05-02T04:04:50.276Z,27.64
2023-05-02T04:05:50.293Z,27.08
2023-05-02T04:06:50.439Z,25.62
2023-05-02T04:07:50.356Z,26.70
2023-05-02T04:08:50.399Z,25.20
2023-05-02T04:09:50.423Z,28.38
2023-05-02T04:10:50.432Z,25.75
2023-05-02T04:11:50.466Z,26.67
2023-05-02T04:12:50.489Z,27.06
2023-05-02T04:13:52.045Z,25.22
2023-05-02T04:14:50.527Z,25.43
2023-05-02T04:15:50.527Z,25.72
2023-05-02T04:16:50.589Z,25.01
2023-05-02T04:17:50.590Z,25.68
2023-05-02T04:18:50.516Z,29.18
2023-05-02T04:19:50.516Z,31.04
2023-05-02T04:20:50.516Z,29.27
2023-05-02T04:21:50.545Z,25.62
2023-05-02T04:22:50.526Z,25.34
2023-05-02T04:23:50.518Z,32.01
2023-05-02T04:24:50.524Z,31.65
2023-05-02T04:25:50.508Z,30.78
2023-05-02T04:26:50.560Z,28.62
2023-05-02T04:27:50.534Z,33.28
2023-05-02T04:28:50.517Z,28.53
2023-05-02T04:29:50.631Z,26.21
2023-05-02T04:30:50.532Z,27.67
2023-05-02T04:31:50.488Z,27.16
2023-05-02T04:32:50.539Z,27.01
2023-05-02T04:33:50.494Z,29.05
2023-05-02T04:34:50.488Z,33.75
2023-05-02T04:35:50.491Z,33.48
2023-05-02T04:36:50.501Z,28.59
2023-05-02T04:37:50.493Z,25.44
2023-05-02T04:38:50.498Z,25.94
2023-05-02T04:39:50.502Z,29.94
2023-05-02T04:40:50.508Z,33.44
2023-05-02T04:41:50.528Z,32.57
2023-05-02T04:42:50.515Z,33.54
2023-05-02T04:43:50.563Z,34.24
2023-05-02T04:44:50.556Z,29.13
2023-05-02T04:45:50.626Z,29.96
2023-05-02T04:46:50.681Z,33.24
2023-05-02T04:47:50.568Z,31.02
2023-05-02T04:48:50.549Z,30.23
2023-05-02T04:49:50.547Z,33.10
2023-05-02T04:50:50.556Z,31.71
2023-05-02T04:51:50.581Z,30.24
2023-05-02T04:52:50.567Z,28.59
2023-05-02T04:53:50.553Z,33.81
2023-05-02T04:54:50.548Z,33.72
2023-05-02T04:55:50.549Z,30.15
2023-05-02T04:56:50.559Z,28.86
2023-05-02T04:57:50.605Z,34.63
2023-05-02T04:58:50.561Z,32.05
2023-05-02T04:59:50.592Z,27.38
2023-05-02T05:00:50.612Z,34.89
2023-05-02T05:01:50.743Z,35.21
2023-05-02T05:02:50.735Z,33.04
2023-05-02T05:03:50.872Z,33.30
2023-05-02T05:04:50.745Z,29.79
2023-05-02T05:05:50.771Z,35.80
2023-05-02T05:06:50.913Z,40.46
2023-05-02T05:07:50.878Z,40.04
2023-05-02T05:08:50.910Z,37.58
2023-05-02T05:09:53.194Z,37.95
2023-05-02T05:10:51.020Z,37.59
2023-05-02T05:11:51.067Z,32.21
2023-05-02T05:12:51.140Z,36.29
2023-05-02T05:13:51.164Z,36.52
2023-05-02T05:14:51.198Z,31.46
2023-05-02T05:15:51.271Z,35.46
2023-05-02T05:16:51.318Z,32.95
2023-05-02T05:17:51.314Z,29.73
2023-05-02T05:18:51.343Z,25.00
2023-05-02T05:19:51.348Z,23.53
2023-05-02T05:20:51.361Z,22.91
2023-05-02T05:21:51.381Z,22.73
2023-05-02T05:22:51.374Z,25.67
2023-05-02T05:23:51.379Z,29.67
2023-05-02T05:24:51.353Z,33.21
2023-05-02T05:25:51.352Z,29.36
2023-05-02T05:26:51.358Z,28.19
2023-05-02T05:27:51.402Z,28.10
2023-05-02T05:28:51.369Z,25.00
2023-05-02T05:29:51.366Z,26.76
2023-05-02T05:30:51.371Z,25.38
2023-05-02T05:31:51.664Z,33.19
2023-05-02T05:32:51.454Z,37.12
2023-05-02T05:33:51.406Z,34.60
2023-05-02T05:34:51.367Z,32.45
2023-05-02T05:35:51.366Z,34.15
2023-05-02T05:36:51.481Z,10.80
2023-05-02T05:37:51.444Z,0.00
2023-05-02T05:38:51.570Z,0.00
2023-05-02T05:39:51.547Z,0.00
2023-05-02T05:40:51.596Z,0.00
2023-05-02T05:41:51.632Z,0.00
2023-05-02T05:42:51.696Z,0.00
2023-05-02T05:43:51.739Z,0.00
2023-05-02T05:44:51.832Z,0.00
2023-05-02T05:45:51.840Z,0.00
2023-05-02T05:46:51.956Z,0.00
2023-05-02T05:47:52.024Z,0.00
2023-05-02T05:48:51.971Z,0.00
2023-05-02T05:49:51.988Z,0.00
2023-05-02T05:50:52.183Z,0.00
2023-05-02T05:51:52.120Z,0.00
2023-05-02T05:52:52.126Z,0.00
2023-05-02T05:53:52.151Z,0.00
2023-05-02T05:54:52.196Z,0.00
2023-05-02T05:55:52.372Z,0.00
2023-05-02T05:56:52.295Z,0.00
2023-05-02T05:57:52.327Z,0.00
2023-05-02T05:58:52.382Z,0.00
2023-05-02T05:59:52.423Z,0.00
2023-05-02T06:00:52.511Z,0.00
2023-05-02T06:01:52.610Z,0.00
2023-05-02T06:02:52.791Z,0.00
2023-05-02T06:03:52.811Z,0.00
2023-05-02T06:04:52.914Z,7.39
2023-05-02T06:05:52.970Z,13.24
2023-05-02T06:06:53.087Z,20.38
2023-05-02T06:07:53.168Z,25.90
2023-05-02T06:08:53.199Z,25.00
2023-05-02T06:09:53.217Z,25.25
2023-05-02T06:10:53.287Z,24.45
2023-05-02T06:11:53.267Z,25.27
2023-05-02T06:12:53.353Z,25.38
2023-05-02T06:13:53.405Z,26.08
2023-05-02T06:14:53.393Z,28.08
2023-05-02T06:15:53.462Z,26.53
2023-05-02T06:16:53.429Z,26.59
2023-05-02T06:17:53.512Z,26.69
2023-05-02T06:18:53.537Z,26.90
2023-05-02T06:19:53.626Z,26.60
2023-05-02T06:20:53.624Z,27.43
2023-05-02T06:21:54.276Z,29.17
2023-05-02T06:22:53.647Z,34.02
2023-05-02T06:23:53.678Z,38.33
2023-05-02T06:24:54.263Z,38.37
2023-05-02T06:25:54.322Z,38.89
2023-05-02T06:26:53.766Z,40.63
2023-05-02T06:27:53.961Z,40.68
2023-05-02T06:28:53.827Z,41.20
2023-05-02T06:29:53.929Z,42.80
2023-05-02T06:30:53.896Z,45.03
2023-05-02T06:31:54.077Z,45.82
2023-05-02T06:32:54.123Z,44.91
2023-05-02T06:33:54.071Z,42.49
2023-05-02T06:34:54.092Z,43.27
2023-05-02T06:35:54.110Z,53.42
2023-05-02T06:36:54.136Z,71.90
2023-05-02T06:37:54.263Z,87.17
2023-05-02T06:38:54.437Z,95.00
2023-05-02T06:39:54.216Z,98.47
2023-05-02T06:40:54.255Z,104.89
2023-05-02T06:41:54.318Z,110.57
2023-05-02T06:42:54.360Z,114.53
2023-05-02T06:43:54.316Z,116.29
2023-05-02T06:44:54.369Z,119.65
2023-05-02T06:45:54.353Z,122.90
2023-05-02T06:46:54.433Z,126.85
2023-05-02T06:47:54.642Z,130.47
2023-05-02T06:48:54.462Z,133.98
2023-05-02T06:49:54.482Z,134.04
2023-05-02T06:50:54.549Z,134.43
2023-05-02T06:51:54.461Z,134.14
2023-05-02T06:52:54.502Z,135.16
2023-05-02T06:53:54.493Z,136.83
2023-05-02T06:54:54.568Z,141.45
2023-05-02T06:55:54.524Z,145.70
2023-05-02T06:56:54.569Z,148.54
2023-05-02T06:57:54.520Z,150.00
2023-05-02T06:58:54.531Z,150.07
2023-05-02T06:59:54.561Z,150.08
2023-05-02T07:00:54.563Z,150.51
2023-05-02T07:01:54.546Z,151.67
2023-05-02T07:02:54.610Z,154.26
2023-05-02T07:03:54.597Z,158.86
2023-05-02T07:04:54.596Z,160.92
2023-05-02T07:05:54.570Z,163.72
2023-05-02T07:06:54.589Z,164.63
2023-05-02T07:07:54.604Z,165.48
2023-05-02T07:08:54.575Z,166.17
2023-05-02T07:09:54.666Z,168.20
2023-05-02T07:10:54.712Z,169.96
2023-05-02T07:11:54.909Z,170.95
2023-05-02T07:12:54.850Z,172.81
2023-05-02T07:13:54.928Z,175.36
2023-05-02T07:14:54.951Z,175.03
2023-05-02T07:15:55.072Z,176.20
2023-05-02T07:16:55.185Z,177.84
2023-05-02T07:17:55.199Z,178.92
2023-05-02T07:18:55.188Z,181.69
2023-05-02T07:19:55.203Z,181.74
2023-05-02T07:20:55.160Z,182.10
2023-05-02T07:21:55.243Z,182.62
2023-05-02T07:22:55.179Z,183.55
2023-05-02T07:23:55.197Z,184.74
2023-05-02T07:24:55.172Z,185.50
2023-05-02T07:25:55.265Z,186.25
2023-05-02T07:26:55.216Z,186.74
2023-05-02T07:27:58.901Z,188.47
2023-05-02T07:28:55.219Z,188.58
2023-05-02T07:29:55.251Z,189.12
2023-05-02T07:30:55.209Z,189.88
2023-05-02T07:31:55.240Z,192.14
2023-05-02T07:32:55.332Z,193.97
2023-05-02T07:33:55.198Z,194.29
2023-05-02T07:34:55.216Z,194.40
2023-05-02T07:35:55.226Z,194.75
2023-05-02T07:36:55.186Z,195.82
2023-05-02T07:37:55.224Z,197.26
2023-05-02T07:38:55.252Z,200.11
2023-05-02T07:39:55.213Z,199.75
2023-05-02T07:40:55.230Z,200.33
2023-05-02T07:41:55.206Z,201.51
2023-05-02T07:42:55.292Z,202.65
2023-05-02T07:43:55.234Z,203.06
2023-05-02T07:44:55.254Z,203.52
2023-05-02T07:45:55.337Z,202.22
2023-05-02T07:46:55.307Z,201.89
2023-05-02T07:47:55.314Z,203.19
2023-05-02T07:48:55.260Z,203.40
2023-05-02T07:49:55.223Z,200.98
2023-05-02T07:50:55.207Z,201.84
2023-05-02T07:51:55.222Z,202.04
2023-05-02T07:52:55.233Z,201.44
2023-05-02T07:53:55.215Z,203.33
2023-05-02T07:54:55.283Z,203.63
2023-05-02T07:55:55.208Z,204.49
2023-05-02T07:56:55.198Z,205.88
2023-05-02T07:57:55.250Z,206.72
2023-05-02T07:58:55.213Z,207.90
2023-05-02T07:59:55.209Z,208.35
2023-05-02T08:00:55.217Z,207.83
2023-05-02T08:01:55.203Z,207.98
2023-05-02T08:02:55.347Z,208.41
2023-05-02T08:03:55.322Z,209.24
2023-05-02T08:04:55.239Z,211.05
2023-05-02T08:05:55.295Z,212.56
2023-05-02T08:06:55.361Z,212.22
2023-05-02T08:07:55.229Z,212.13
2023-05-02T08:08:55.184Z,212.18
2023-05-02T08:09:55.158Z,212.44
2023-05-02T08:10:55.161Z,212.96
2023-05-02T08:11:55.146Z,212.54
2023-05-02T08:12:55.176Z,208.09
2023-05-02T08:13:55.161Z,203.31
2023-05-02T08:14:55.154Z,199.84
2023-05-02T08:15:55.195Z,193.70
2023-05-02T08:16:55.133Z,187.29
2023-05-02T08:17:55.222Z,184.61
2023-05-02T08:18:55.117Z,179.17
2023-05-02T08:19:55.113Z,177.19
2023-05-02T08:20:55.118Z,175.50
2023-05-02T08:21:55.127Z,172.29
2023-05-02T08:22:55.185Z,169.20
2023-05-02T08:23:55.214Z,165.36
2023-05-02T08:24:55.119Z,162.00
2023-05-02T08:25:55.156Z,160.30
2023-05-02T08:26:55.143Z,158.23
2023-05-02T08:27:55.123Z,157.90
2023-05-02T08:28:55.086Z,156.22
2023-05-02T08:29:55.093Z,157.09
2023-05-02T08:30:56.117Z,151.87
2023-05-02T08:31:55.112Z,149.72
2023-05-02T08:32:55.110Z,147.99
2023-05-02T08:33:55.122Z,147.79
2023-05-02T08:34:55.048Z,147.30
2023-05-02T08:35:55.061Z,148.13
2023-05-02T08:36:56.207Z,147.96
2023-05-02T08:37:55.050Z,149.67
2023-05-02T08:38:55.043Z,149.63
2023-05-02T08:39:55.040Z,149.25
2023-05-02T08:40:55.018Z,150.71
2023-05-02T08:41:55.067Z,153.18
2023-05-02T08:42:55.051Z,156.92
2023-05-02T08:43:55.013Z,158.86
2023-05-02T08:44:55.018Z,158.96
2023-05-02T08:45:54.995Z,159.67
2023-05-02T08:46:55.024Z,161.34
2023-05-02T08:47:55.415Z,163.55
2023-05-02T08:48:55.026Z,167.32
2023-05-02T08:49:55.021Z,169.64
2023-05-02T08:50:54.975Z,171.67
2023-05-02T08:51:54.960Z,172.41
2023-05-02T08:52:54.983Z,172.78
2023-05-02T08:53:54.995Z,175.38
2023-05-02T08:54:55.033Z,176.02
2023-05-02T08:55:55.062Z,176.09
2023-05-02T08:56:55.813Z,176.26
2023-05-02T08:57:55.008Z,177.44
2023-05-02T09:01:33.389Z,25.00
2023-05-02T09:02:33.356Z,25.00
2023-05-02T09:03:33.328Z,25.00
2023-05-02T09:04:33.351Z,25.00
2023-05-02T09:05:33.323Z,25.00
2023-05-02T09:06:33.331Z,28.50
2023-05-02T09:07:33.352Z,37.05
2023-05-02T09:09:52.473Z,25.00
2023-05-02T09:10:52.466Z,25.00
2023-05-02T09:11:52.473Z,25.00
2023-05-02T09:12:52.470Z,25.00
2023-05-02T09:13:52.525Z,25.00
2023-05-02T09:14:52.482Z,25.68
2023-05-02T09:15:52.483Z,31.13
2023-05-02T09:16:52.732Z,31.02
2023-05-02T09:19:11.650Z,25.00
2023-05-02T09:20:11.668Z,25.00
2023-05-02T09:21:12.668Z,25.00
2023-05-02T09:22:11.649Z,25.00
2023-05-02T09:23:11.700Z,25.00
2023-05-02T09:24:11.681Z,26.44
2023-05-02T09:25:11.742Z,31.38
2023-05-02T09:26:11.729Z,37.05
2023-05-02T09:27:11.725Z,40.41
2023-05-02T09:28:11.833Z,42.30
2023-05-02T09:29:11.738Z,50.62
2023-05-02T09:30:11.759Z,54.29
2023-05-02T09:31:11.823Z,55.75
2023-05-02T09:32:11.828Z,59.18
2023-05-02T09:33:11.909Z,62.76
2023-05-02T09:34:11.827Z,67.31
2023-05-02T09:35:11.807Z,73.04
2023-05-02T09:36:11.826Z,73.40
2023-05-02T09:37:11.824Z,74.34
2023-05-02T09:38:11.910Z,77.34
2023-05-02T09:39:14.812Z,85.04
2023-05-02T09:40:11.856Z,95.86
2023-05-02T09:41:11.874Z,98.07
2023-05-02T09:42:11.890Z,100.89
2023-05-02T09:43:11.890Z,101.22
2023-05-02T09:44:11.933Z,102.12
2023-05-02T09:45:11.915Z,105.60
2023-05-02T09:46:12.051Z,109.31
2023-05-02T09:47:11.925Z,101.58
2023-05-02T09:48:11.985Z,104.08
2023-05-02T09:49:11.958Z,109.71
2023-05-02T09:50:11.977Z,119.57
2023-05-02T09:51:11.966Z,132.32
2023-05-02T09:52:12.008Z,137.71
2023-05-02T09:53:12.022Z,141.48
2023-05-02T09:54:12.012Z,142.61
2023-05-02T09:55:12.012Z,145.09
2023-05-02T09:56:12.040Z,150.65
2023-05-02T09:57:12.058Z,152.23
2023-05-02T09:58:12.087Z,155.75
2023-05-02T09:59:12.169Z,160.79
2023-05-02T10:00:12.845Z,162.83
2023-05-02T10:01:12.122Z,159.05
2023-05-02T10:02:14.972Z,152.31
2023-05-02T10:03:12.170Z,152.63
2023-05-02T10:04:12.137Z,147.95
2023-05-02T10:05:12.937Z,146.94
2023-05-02T10:06:12.133Z,149.08
2023-05-02T10:07:12.140Z,148.50
2023-05-02T10:08:12.185Z,148.57
2023-05-02T10:09:13.772Z,148.15
2023-05-02T10:10:12.169Z,148.24
2023-05-02T10:11:12.182Z,149.12
2023-05-02T10:12:12.190Z,151.23
2023-05-02T10:13:12.476Z,154.69
2023-05-02T10:14:12.841Z,160.78
2023-05-02T10:15:12.183Z,160.97
2023-05-02T10:16:12.207Z,167.08
2023-05-02T10:17:12.180Z,168.87
2023-05-02T10:18:12.254Z,173.43
2023-05-02T10:19:12.174Z,172.69
2023-05-02T10:20:12.194Z,175.64
2023-05-02T10:21:12.223Z,178.73
2023-05-02T10:22:12.185Z,179.04
2023-05-02T10:23:12.196Z,179.94
2023-05-02T10:24:12.272Z,182.72
2023-05-02T10:25:12.231Z,186.47
2023-05-02T10:26:12.192Z,191.35
2023-05-02T10:27:12.294Z,200.66
2023-05-02T10:28:12.236Z,195.34
2023-05-02T10:29:12.216Z,191.34
2023-05-02T10:30:12.221Z,186.21
2023-05-02T10:31:12.344Z,181.60
2023-05-02T10:32:12.229Z,170.52
2023-05-02T10:33:12.291Z,163.48
2023-05-02T10:34:12.241Z,149.28
2023-05-02T10:35:12.248Z,149.07
2023-05-02T10:36:12.261Z,143.76
2023-05-02T10:37:12.247Z,141.81
2023-05-02T10:38:12.328Z,139.56
2023-05-02T10:39:12.279Z,142.35
2023-05-02T10:40:12.276Z,144.19
2023-05-02T10:41:12.351Z,145.96
2023-05-02T10:42:12.329Z,149.45
2023-05-02T10:43:12.286Z,155.97
2023-05-02T10:44:12.280Z,154.72
2023-05-02T10:45:12.294Z,161.02
2023-05-02T10:46:12.315Z,160.37
2023-05-02T10:47:12.341Z,163.73
2023-05-02T10:48:12.492Z,165.49
2023-05-02T10:49:12.305Z,161.77
2023-05-02T10:50:12.331Z,168.44
2023-05-02T10:51:12.308Z,171.36
2023-05-02T10:52:12.307Z,168.11
2023-05-02T10:53:12.424Z,177.32
2023-05-02T10:54:12.304Z,177.36
2023-05-02T10:55:12.306Z,177.66
2023-05-02T10:56:12.341Z,178.62
2023-05-02T10:57:12.361Z,177.76
2023-05-02T10:58:12.313Z,177.67
2023-05-02T10:59:12.316Z,179.15
2023-05-02T11:00:12.313Z,179.31
2023-05-02T11:01:12.382Z,183.02
2023-05-02T11:02:12.383Z,185.24
2023-05-02T11:03:12.444Z,188.06
2023-05-02T11:04:12.319Z,189.80
2023-05-02T11:05:12.365Z,190.89
2023-05-02T11:06:12.393Z,200.14
2023-05-02T11:07:12.351Z,196.35
2023-05-02T11:08:12.357Z,198.22
2023-05-02T11:09:12.377Z,197.45
2023-05-02T11:10:12.343Z,203.36
2023-05-02T11:11:13.318Z,201.51
2023-05-02T11:12:12.366Z,204.66
2023-05-02T11:13:12.413Z,201.44
2023-05-02T11:14:13.111Z,202.08
2023-05-02T11:15:12.404Z,203.14
2023-05-02T11:16:12.374Z,197.98
2023-05-02T11:17:12.391Z,207.07
2023-05-02T11:18:12.774Z,205.93
2023-05-02T11:19:12.370Z,203.79
2023-05-02T11:20:12.394Z,203.89
2023-05-02T11:21:12.384Z,205.41
2023-05-02T11:22:12.372Z,207.51
2023-05-02T11:23:12.381Z,209.09
2023-05-02T11:24:12.383Z,216.00
2023-05-02T11:25:12.355Z,219.36
2023-05-02T11:26:12.421Z,215.32
2023-05-02T11:27:13.286Z,214.91
2023-05-02T11:28:12.973Z,221.37
2023-05-02T11:29:12.393Z,213.65
2023-05-02T11:30:13.500Z,216.94
2023-05-02T11:31:12.386Z,218.54
2023-05-02T11:32:12.429Z,222.35
2023-05-02T11:33:12.990Z,217.13
2023-05-02T11:34:12.446Z,216.23
2023-05-02T11:35:12.457Z,222.99
2023-05-02T11:36:12.402Z,219.22
2023-05-02T11:37:12.446Z,225.77
2023-05-02T11:38:12.422Z,225.70
2023-05-02T11:39:12.417Z,219.16
2023-05-02T11:40:12.501Z,223.53
2023-05-02T11:41:12.412Z,219.16
2023-05-02T11:42:12.396Z,219.00
2023-05-02T11:43:12.408Z,213.59
2023-05-02T11:44:12.377Z,213.54
2023-05-02T11:45:12.403Z,214.02
2023-05-02T11:46:12.388Z,200.62
2023-05-02T11:47:12.420Z,190.13
2023-05-02T11:48:12.472Z,186.69
2023-05-02T11:49:12.712Z,179.38
2023-05-02T11:50:12.449Z,182.18
2023-05-02T11:51:12.464Z,181.12
2023-05-02T11:52:12.432Z,171.45
2023-05-02T11:53:12.436Z,178.81
2023-05-02T11:54:12.441Z,181.96
2023-05-02T11:55:12.440Z,191.07
2023-05-02T11:56:12.440Z,188.12
2023-05-02T11:57:12.448Z,180.13
2023-05-02T11:58:12.438Z,178.73
2023-05-02T11:59:12.439Z,178.62
2023-05-02T12:00:12.469Z,174.46
2023-05-02T12:01:12.445Z,179.62
2023-05-02T12:02:12.451Z,174.11
2023-05-02T12:03:12.565Z,172.17
2023-05-02T12:04:12.445Z,171.48
2023-05-02T12:05:12.543Z,176.50
2023-05-02T12:06:12.881Z,172.75
2023-05-02T12:07:12.511Z,168.70
2023-05-02T12:08:12.454Z,168.86
2023-05-02T12:09:12.463Z,168.75
2023-05-02T12:10:12.484Z,167.70
2023-05-02T12:11:12.466Z,169.44
2023-05-02T12:12:12.460Z,171.62
2023-05-02T12:13:12.466Z,162.20
2023-05-02T12:14:12.464Z,169.19
2023-05-02T12:15:12.471Z,163.77
2023-05-02T12:16:12.550Z,161.87
2023-05-02T12:17:12.479Z,167.80
2023-05-02T12:18:12.536Z,171.26
2023-05-02T12:19:12.922Z,164.86
2023-05-02T12:20:12.471Z,165.32
2023-05-02T12:21:12.477Z,166.13
2023-05-02T12:22:12.474Z,167.43
2023-05-02T12:23:12.482Z,167.77
2023-05-02T12:24:12.501Z,174.12
2023-05-02T12:25:12.490Z,178.34
2023-05-02T12:26:12.494Z,173.85
2023-05-02T12:27:12.516Z,181.48
2023-05-02T12:28:12.489Z,180.69
2023-05-02T12:29:12.542Z,180.83
2023-05-02T12:30:12.488Z,181.08
2023-05-02T12:31:12.564Z,182.14
2023-05-02T12:32:12.513Z,186.05
2023-05-02T12:33:12.487Z,189.57
2023-05-02T12:34:12.953Z,193.08
2023-05-02T12:35:12.464Z,196.92
2023-05-02T12:36:12.482Z,195.01
2023-05-02T12:37:12.478Z,199.57
2023-05-02T12:38:12.481Z,192.51
2023-05-02T12:39:12.480Z,201.02
2023-05-02T12:40:12.475Z,196.30
2023-05-02T12:41:12.467Z,203.62
2023-05-02T12:42:12.478Z,197.91
2023-05-02T12:43:12.492Z,206.20